Time;durP1;ratioP1;P1;durP2;ratioP2;P2;SDS_P1;SDS_P2;PMS_P1;PMS_P2;Temp;Humidity;BMP_temperature;BMP_pressure;BME280_temperature;BME280_humidity;BME280_pressure;Samples;Min_cycle;Max_cycle;Signal;HPM_P1;HPM_P2
2023/08/06 00:02:18;;;;;;;4.90;3.00;;;17.20;98.00;;;;;;5014636;28;20468;-67
2023/08/06 00:04:45;;;;;;;5.47;3.53;;;17.20;98.00;;;;;;5015503;28;20455;-67
2023/08/06 00:07:12;;;;;;;4.80;2.87;;;17.40;98.00;;;;;;5014503;28;20448;-67
2023/08/06 00:09:40;;;;;;;4.93;3.33;;;17.40;98.00;;;;;;5015907;28;20497;-67
2023/08/06 00:12:07;;;;;;;4.93;3.30;;;17.50;98.00;;;;;;5015124;28;20451;-67
2023/08/06 00:14:36;;;;;;;7.20;3.40;;;17.50;98.00;;;;;;5016203;28;20483;-67
2023/08/06 00:17:04;;;;;;;13.83;6.93;;;17.30;98.00;;;;;;5015090;28;20463;-67
2023/08/06 00:19:32;;;;;;;11.87;4.07;;;17.00;98.00;;;;;;5015962;28;20448;-67
2023/08/06 00:21:59;;;;;;;6.37;3.50;;;17.00;98.00;;;;;;5015585;28;20981;-68
2023/08/06 00:24:26;;;;;;;5.20;3.60;;;17.00;98.00;;;;;;5015667;28;20494;-67
2023/08/06 00:26:53;;;;;;;7.50;3.73;;;17.00;98.00;;;;;;5015605;28;20455;-67
2023/08/06 00:29:21;;;;;;;5.10;3.27;;;17.00;98.00;;;;;;5014418;28;20447;-67
2023/08/06 00:31:52;;;;;;;5.00;3.47;;;17.00;98.00;;;;;;5015559;28;20809;-67
2023/08/06 00:34:19;;;;;;;6.73;3.97;;;17.00;98.00;;;;;;5015675;28;20455;-67
2023/08/06 00:36:48;;;;;;;5.27;3.50;;;17.00;98.00;;;;;;5015649;28;20451;-67
2023/08/06 00:39:15;;;;;;;6.07;3.50;;;16.90;98.00;;;;;;5014301;28;20805;-67
2023/08/06 00:41:43;;;;;;;5.73;3.40;;;17.00;98.00;;;;;;5014921;28;20483;-67
2023/08/06 00:44:10;;;;;;;4.87;3.10;;;17.00;98.00;;;;;;5013970;28;20459;-67
2023/08/06 00:46:37;;;;;;;7.90;3.47;;;17.00;98.00;;;;;;5014879;28;20455;-67
2023/08/06 00:49:06;;;;;;;6.90;3.60;;;17.00;98.00;;;;;;5013963;28;20463;-67
2023/08/06 00:51:35;;;;;;;4.80;3.33;;;17.00;98.00;;;;;;5014695;28;20443;-67
2023/08/06 00:54:03;;;;;;;5.17;3.40;;;17.00;98.00;;;;;;5014791;28;20458;-68
2023/08/06 00:56:30;;;;;;;13.00;3.20;;;16.90;98.00;;;;;;5013527;28;20451;-67
2023/08/06 00:59:00;;;;;;;5.10;3.30;;;16.90;98.00;;;;;;5014778;28;20550;-67
2023/08/06 01:01:27;;;;;;;7.37;3.07;;;16.70;98.00;;;;;;5014678;28;20911;-67
2023/08/06 01:03:55;;;;;;;6.67;3.47;;;16.70;98.00;;;;;;5014724;28;20452;-67
2023/08/06 01:06:40;;;;;;;6.10;3.40;;;16.70;98.00;;;;;;5014710;28;20457;-67
2023/08/06 01:09:18;;;;;;;5.63;3.40;;;16.60;98.00;;;;;;5014678;28;20487;-67
2023/08/06 01:11:55;;;;;;;4.53;3.10;;;16.60;98.00;;;;;;5013958;28;20464;-67
2023/08/06 01:14:29;;;;;;;5.70;3.43;;;16.70;98.00;;;;;;5013382;28;20967;-67
2023/08/06 01:16:57;;;;;;;6.10;3.77;;;16.70;98.00;;;;;;5014515;28;20456;-67
2023/08/06 01:19:25;;;;;;;12.37;3.17;;;16.70;98.00;;;;;;5013319;28;20459;-67
2023/08/06 01:21:53;;;;;;;16.57;3.90;;;16.70;98.00;;;;;;5014662;28;20479;-67
2023/08/06 01:24:20;;;;;;;5.33;3.47;;;16.60;98.00;;;;;;5014505;28;20510;-67
2023/08/06 01:27:02;;;;;;;5.27;3.30;;;16.50;98.00;;;;;;5013355;28;20455;-67
2023/08/06 01:29:35;;;;;;;5.63;3.60;;;16.50;98.00;;;;;;5013666;28;20777;-67
2023/08/06 01:32:04;;;;;;;5.87;3.67;;;16.50;98.00;;;;;;5014635;28;20459;-67
2023/08/06 01:34:34;;;;;;;5.93;3.70;;;16.30;98.00;;;;;;5014368;28;20459;-67
2023/08/06 01:37:05;;;;;;;4.40;2.87;;;16.20;98.00;;;;;;5013987;28;20487;-67
2023/08/06 01:39:34;;;;;;;6.13;3.50;;;16.30;98.00;;;;;;5014300;28;20455;-67
2023/08/06 01:42:01;;;;;;;7.83;3.80;;;16.30;98.00;;;;;;5012651;28;20855;-67
2023/08/06 01:44:29;;;;;;;7.10;4.07;;;16.40;98.00;;;;;;5013990;28;20455;-67
2023/08/06 01:46:56;;;;;;;6.50;4.10;;;16.50;98.00;;;;;;5013650;28;20448;-67
2023/08/06 01:49:26;;;;;;;12.13;5.00;;;16.40;98.00;;;;;;5012669;28;20463;-67
2023/08/06 01:51:53;;;;;;;9.10;4.40;;;16.40;98.00;;;;;;5012428;28;20483;-67
2023/08/06 01:54:22;;;;;;;7.03;3.83;;;16.30;98.00;;;;;;5013843;28;20459;-67
2023/08/06 01:56:49;;;;;;;8.03;4.30;;;16.30;98.00;;;;;;5013661;28;20452;-67
2023/08/06 01:59:16;;;;;;;6.90;3.90;;;16.40;98.00;;;;;;5013849;28;20468;-67
2023/08/06 02:01:43;;;;;;;6.60;3.80;;;16.40;98.00;;;;;;5013437;28;20491;-67
2023/08/06 02:04:11;;;;;;;7.80;4.43;;;16.40;98.00;;;;;;5013536;28;20826;-67
2023/08/06 02:06:47;;;;;;;7.10;3.93;;;16.30;98.00;;;;;;5013282;28;20941;-67
2023/08/06 02:09:14;;;;;;;7.23;4.10;;;16.20;98.00;;;;;;5013300;28;20454;-67
2023/08/06 02:11:43;;;;;;;7.17;3.90;;;16.20;98.00;;;;;;5013384;28;20952;-67
2023/08/06 02:14:10;;;;;;;12.40;3.50;;;16.30;98.00;;;;;;5012444;28;20456;-67
2023/08/06 02:16:37;;;;;;;7.07;3.60;;;16.40;98.00;;;;;;5011906;28;20456;-67
2023/08/06 02:19:04;;;;;;;7.20;4.00;;;16.40;98.00;;;;;;5013584;28;20460;-67
2023/08/06 02:21:31;;;;;;;4.57;3.17;;;16.50;98.00;;;;;;5013479;28;20514;-67
2023/08/06 02:23:58;;;;;;;5.20;3.17;;;16.50;98.00;;;;;;5012611;28;20455;-67
2023/08/06 02:26:25;;;;;;;6.50;3.60;;;16.60;98.00;;;;;;5013552;28;20818;-66
2023/08/06 02:28:54;;;;;;;5.87;3.50;;;16.50;98.00;;;;;;5013339;28;20810;-67
2023/08/06 02:31:21;;;;;;;6.37;3.53;;;16.50;98.00;;;;;;5012897;28;20463;-67
2023/08/06 02:33:48;;;;;;;5.40;3.80;;;16.60;98.00;;;;;;5013201;28;20444;-67
2023/08/06 02:36:15;;;;;;;6.60;3.40;;;16.50;98.00;;;;;;5012888;28;20926;-67
2023/08/06 02:38:42;;;;;;;5.17;3.27;;;16.50;98.00;;;;;;5013045;28;20466;-67
2023/08/06 02:41:09;;;;;;;5.30;3.10;;;16.50;98.00;;;;;;5011586;28;20615;-67
2023/08/06 02:43:36;;;;;;;5.27;3.00;;;16.50;98.00;;;;;;5013321;28;20805;-67
2023/08/06 02:46:05;;;;;;;3.83;2.60;;;16.60;98.00;;;;;;5012868;28;20459;-67
2023/08/06 02:48:32;;;;;;;3.53;2.37;;;16.60;98.00;;;;;;5012882;28;20451;-67
2023/08/06 02:51:00;;;;;;;5.00;2.70;;;16.50;98.00;;;;;;5012784;28;20452;-67
2023/08/06 02:53:26;;;;;;;4.57;2.47;;;16.50;98.00;;;;;;4995555;28;20459;-67
2023/08/06 02:55:53;;;;;;;5.70;2.60;;;16.50;98.00;;;;;;5012376;28;20516;-66
2023/08/06 02:58:22;;;;;;;2.97;2.23;;;16.40;98.00;;;;;;5012532;28;20451;-67
2023/08/06 03:01:00;;;;;;;3.87;2.70;;;16.50;98.00;;;;;;5011258;28;20930;-67
2023/08/06 03:03:30;;;;;;;3.03;2.23;;;16.40;98.00;;;;;;5012666;28;20459;-67
2023/08/06 03:05:57;;;;;;;3.83;2.63;;;16.30;98.00;;;;;;5012361;28;20463;-67
2023/08/06 03:08:24;;;;;;;4.20;2.30;;;16.10;98.00;;;;;;5012581;28;20456;-67
2023/08/06 03:10:51;;;;;;;3.67;2.20;;;16.00;98.00;;;;;;5011217;28;20463;-67
2023/08/06 03:13:19;;;;;;;3.67;2.20;;;16.00;98.00;;;;;;5012664;28;20857;-66
2023/08/06 03:15:54;;;;;;;3.20;2.40;;;16.10;98.00;;;;;;5012799;28;20466;-67
2023/08/06 03:18:21;;;;;;;4.70;2.50;;;16.00;98.00;;;;;;5240388;22;20552;-69
2023/08/06 03:20:50;;;;;;;10.50;2.50;;;15.90;98.00;;;;;;5011808;28;20543;-70
2023/08/06 03:23:17;;;;;;;4.50;2.00;;;15.90;98.00;;;;;;5011777;28;20491;-71
2023/08/06 03:25:44;;;;;;;3.30;2.33;;;15.90;98.00;;;;;;5011689;28;20460;-71
2023/08/06 03:28:11;;;;;;;2.60;2.00;;;16.00;98.00;;;;;;5011696;28;20459;-71
2023/08/06 03:35:46;;;;;;;5.13;2.30;;;16.00;98.00;;;;;;5029994;28;20479;-72
2023/08/06 03:40:48;;;;;;;3.17;2.10;;;16.00;98.00;;;;;;5050179;28;20866;-71
2023/08/06 03:43:15;;;;;;;5.77;2.63;;;15.90;98.00;;;;;;5051156;28;20486;-70
2023/08/06 03:45:43;;;;;;;2.70;2.03;;;15.90;98.00;;;;;;5050727;28;20449;-70
2023/08/06 03:48:10;;;;;;;5.57;2.10;;;15.80;98.00;;;;;;5050956;28;20457;-71
2023/08/06 03:50:37;;;;;;;4.00;2.60;;;15.70;98.00;;;;;;5050894;28;20452;-70
2023/08/06 03:53:05;;;;;;;11.50;2.40;;;15.70;98.00;;;;;;5050924;28;20453;-70
2023/08/06 03:55:32;;;;;;;4.50;2.00;;;15.70;98.00;;;;;;5033157;28;20456;-71
2023/08/06 03:58:00;;;;;;;4.97;2.80;;;15.70;98.00;;;;;;5051018;28;20458;-69
2023/08/06 04:00:27;;;;;;;3.27;2.30;;;15.80;98.00;;;;;;5050917;28;20453;-71
2023/08/06 04:02:54;;;;;;;2.77;2.10;;;15.90;98.00;;;;;;5050702;28;21024;-71
2023/08/06 04:05:21;;;;;;;5.37;2.50;;;15.70;98.00;;;;;;5051249;28;20947;-71
2023/08/06 04:07:51;;;;;;;4.57;2.53;;;15.70;98.00;;;;;;5051039;28;20457;-70
2023/08/06 04:10:18;;;;;;;3.10;2.13;;;15.60;98.00;;;;;;5051271;28;20449;-70
2023/08/06 04:12:45;;;;;;;3.00;2.20;;;15.50;98.00;;;;;;5050906;28;20457;-70
2023/08/06 04:15:13;;;;;;;4.63;2.40;;;15.50;98.00;;;;;;5050974;28;20462;-69
2023/08/06 04:17:40;;;;;;;7.27;2.10;;;15.50;98.00;;;;;;5050924;28;20445;-70
2023/08/06 04:20:08;;;;;;;2.50;2.03;;;15.50;98.00;;;;;;5050907;28;20946;-70
2023/08/06 04:22:35;;;;;;;2.43;1.80;;;15.50;98.00;;;;;;5051252;28;20484;-72
2023/08/06 04:25:03;;;;;;;3.87;2.03;;;15.50;98.00;;;;;;5051323;28;20814;-70
2023/08/06 04:27:30;;;;;;;3.13;2.20;;;15.60;98.00;;;;;;5051480;28;20544;-71
2023/08/06 04:29:57;;;;;;;3.30;2.20;;;15.60;98.00;;;;;;5050649;28;20952;-69
2023/08/06 04:32:26;;;;;;;4.17;2.60;;;15.60;98.00;;;;;;5051420;28;20457;-71
2023/08/06 04:34:56;;;;;;;3.67;2.10;;;15.80;98.00;;;;;;5051588;28;20453;-71
2023/08/06 04:37:23;;;;;;;5.67;2.10;;;15.90;98.00;;;;;;5034172;28;20454;-70
2023/08/06 04:39:50;;;;;;;2.83;2.07;;;15.90;98.00;;;;;;5050642;28;20465;-72
2023/08/06 04:42:17;;;;;;;2.70;2.13;;;15.90;98.00;;;;;;5050365;28;20526;-70
2023/08/06 04:44:45;;;;;;;2.17;1.73;;;15.90;98.00;;;;;;5050723;28;20457;-70
2023/08/06 04:47:12;;;;;;;5.47;2.07;;;15.90;98.00;;;;;;5052851;28;20812;-71
2023/08/06 04:49:40;;;;;;;3.70;2.50;;;16.00;98.00;;;;;;5036707;28;20866;-70
2023/08/06 04:52:07;;;;;;;7.00;2.27;;;15.90;98.00;;;;;;5054291;28;20457;-70
2023/08/06 04:54:35;;;;;;;2.70;2.00;;;15.90;98.00;;;;;;5053716;28;20467;-70
2023/08/06 04:57:02;;;;;;;2.80;2.00;;;15.90;98.00;;;;;;5053900;28;20738;-70
2023/08/06 04:59:29;;;;;;;2.77;2.00;;;15.80;98.00;;;;;;5054467;28;20464;-70
2023/08/06 05:01:56;;;;;;;2.37;1.80;;;15.80;98.00;;;;;;5036103;28;21023;-69
2023/08/06 05:04:24;;;;;;;2.17;1.90;;;15.80;98.00;;;;;;5054156;28;20464;-71
2023/08/06 05:06:52;;;;;;;3.40;1.90;;;15.80;98.00;;;;;;5053930;28;20457;-71
2023/08/06 05:09:20;;;;;;;3.23;1.83;;;15.80;98.00;;;;;;5053947;28;20824;-70
2023/08/06 05:11:48;;;;;;;5.60;1.80;;;15.90;98.00;;;;;;5036076;28;20485;-71
2023/08/06 05:14:15;;;;;;;2.53;1.70;;;15.80;98.00;;;;;;5053763;28;20454;-69
2023/08/06 05:16:43;;;;;;;2.53;2.00;;;15.80;98.00;;;;;;5053577;28;20456;-70
2023/08/06 05:19:13;;;;;;;7.03;2.00;;;15.90;98.00;;;;;;5053696;28;20453;-70
2023/08/06 05:21:40;;;;;;;2.23;1.73;;;15.80;98.00;;;;;;5053409;28;20457;-70
2023/08/06 05:24:08;;;;;;;1.90;1.70;;;15.70;98.00;;;;;;5053548;28;20461;-70
2023/08/06 05:26:35;;;;;;;2.40;1.83;;;15.70;98.00;;;;;;5053448;28;20461;-72
2023/08/06 05:29:02;;;;;;;2.10;1.80;;;15.60;98.00;;;;;;5053383;28;20455;-70
2023/08/06 05:31:30;;;;;;;2.47;1.77;;;15.70;98.00;;;;;;5053380;28;20452;-69
2023/08/06 05:33:57;;;;;;;1.70;1.50;;;15.70;98.00;;;;;;5053515;28;20453;-69
2023/08/06 05:36:25;;;;;;;2.53;1.70;;;15.70;98.00;;;;;;5053333;28;20460;-70
2023/08/06 05:38:51;;;;;;;2.83;1.93;;;15.80;98.00;;;;;;5034163;28;20457;-70
2023/08/06 05:41:20;;;;;;;4.00;2.00;;;15.90;98.00;;;;;;5053062;28;20453;-71
2023/08/06 05:43:47;;;;;;;2.77;1.60;;;15.80;98.00;;;;;;5053021;28;20484;-71
2023/08/06 05:46:14;;;;;;;1.80;1.50;;;15.70;98.00;;;;;;5053148;28;20461;-71
2023/08/06 05:48:41;;;;;;;2.67;1.80;;;15.80;98.00;;;;;;5053009;28;20476;-71
2023/08/06 05:51:08;;;;;;;2.37;1.73;;;15.70;98.00;;;;;;5052852;28;20464;-70
2023/08/06 05:53:35;;;;;;;3.13;1.57;;;15.70;98.00;;;;;;5053114;28;20454;-70
2023/08/06 05:56:02;;;;;;;2.23;1.70;;;15.80;98.00;;;;;;5052709;28;20449;-71
2023/08/06 05:58:31;;;;;;;2.47;1.67;;;15.80;98.00;;;;;;5035416;28;20469;-71
2023/08/06 06:00:58;;;;;;;1.93;1.60;;;15.90;98.00;;;;;;5035290;28;20455;-71
2023/08/06 06:03:25;;;;;;;1.90;1.70;;;15.90;98.00;;;;;;5052793;28;20485;-70
2023/08/06 06:05:52;;;;;;;3.57;1.50;;;16.00;98.00;;;;;;5052678;28;20456;-71
2023/08/06 06:08:19;;;;;;;2.33;1.60;;;16.10;98.00;;;;;;5035182;28;20450;-71
2023/08/06 06:10:49;;;;;;;2.87;1.77;;;16.20;98.00;;;;;;5052672;28;20816;-71
2023/08/06 06:13:16;;;;;;;1.50;1.50;;;16.30;98.00;;;;;;5052776;28;20578;-71
2023/08/06 06:15:48;;;;;;;2.37;1.70;;;16.30;98.00;;;;;;5052438;28;20460;-72
2023/08/06 06:18:15;;;;;;;2.30;1.60;;;16.20;98.00;;;;;;5034668;28;20457;-71
2023/08/06 06:20:42;;;;;;;1.50;1.30;;;16.30;98.00;;;;;;5052534;28;20529;-71
2023/08/06 06:23:10;;;;;;;2.47;1.40;;;16.20;98.00;;;;;;5052353;28;20490;-67
2023/08/06 06:25:36;;;;;;;1.90;1.60;;;16.20;98.00;;;;;;5034726;28;20442;-67
2023/08/06 06:28:04;;;;;;;2.90;1.53;;;16.30;98.00;;;;;;5052077;28;20457;-67
2023/08/06 06:30:31;;;;;;;4.20;1.50;;;16.30;98.00;;;;;;5052136;28;20878;-67
2023/08/06 06:32:59;;;;;;;2.73;1.60;;;16.30;98.00;;;;;;5052356;28;20465;-67
2023/08/06 06:35:26;;;;;;;3.83;1.43;;;16.40;98.00;;;;;;5052044;28;20980;-67
2023/08/06 06:37:54;;;;;;;2.60;1.40;;;16.40;98.00;;;;;;5051884;28;20461;-67
2023/08/06 06:40:21;;;;;;;3.07;1.90;;;16.30;98.00;;;;;;5051877;28;20457;-67
2023/08/06 06:42:48;;;;;;;1.67;1.40;;;16.30;98.00;;;;;;5052009;28;20787;-67
2023/08/06 06:45:15;;;;;;;1.50;1.40;;;16.50;98.00;;;;;;5052038;28;20455;-67
2023/08/06 06:47:42;;;;;;;2.80;1.20;;;16.40;98.00;;;;;;5051789;28;20468;-67
2023/08/06 06:50:14;;;;;;;2.60;1.40;;;16.40;98.00;;;;;;5052107;28;20989;-67
2023/08/06 06:52:42;;;;;;;6.10;1.53;;;16.50;98.00;;;;;;5051901;28;20483;-67
2023/08/06 06:55:09;;;;;;;2.23;1.50;;;16.60;98.00;;;;;;5047018;28;20460;-67
2023/08/06 06:57:37;;;;;;;3.10;1.40;;;16.70;98.00;;;;;;5071714;28;20457;-67
2023/08/06 07:00:05;;;;;;;1.30;1.30;;;16.70;98.00;;;;;;5054074;28;20460;-67
2023/08/06 07:02:32;;;;;;;2.40;1.27;;;16.60;98.00;;;;;;5071659;28;20491;-67
2023/08/06 07:04:59;;;;;;;2.47;1.50;;;16.40;98.00;;;;;;5037658;28;20525;-67
2023/08/06 07:07:27;;;;;;;1.93;1.30;;;16.40;98.00;;;;;;5071433;28;20463;-67
2023/08/06 07:09:55;;;;;;;3.00;1.50;;;16.50;98.00;;;;;;5052967;28;20457;-67
2023/08/06 07:12:23;;;;;;;1.67;1.50;;;16.40;98.00;;;;;;5071657;28;20498;-66
2023/08/06 07:14:50;;;;;;;2.93;1.37;;;16.40;98.00;;;;;;5071295;28;20448;-66
2023/08/06 07:17:17;;;;;;;2.33;1.50;;;16.40;98.00;;;;;;5071525;28;20467;-66
2023/08/06 07:19:45;;;;;;;1.57;1.30;;;16.30;98.00;;;;;;5071861;28;20460;-67
2023/08/06 07:22:12;;;;;;;2.80;1.30;;;16.30;98.00;;;;;;5071420;28;20452;-67
2023/08/06 07:24:40;;;;;;;1.40;1.30;;;16.40;98.00;;;;;;5071557;28;20937;-66
2023/08/06 07:27:08;;;;;;;2.27;1.40;;;16.40;98.00;;;;;;5071363;28;20455;-66
2023/08/06 07:29:35;;;;;;;6.40;1.63;;;16.50;98.00;;;;;;5071945;28;21137;-67
2023/08/06 07:32:02;;;;;;;1.93;1.30;;;16.50;98.00;;;;;;5071532;28;20509;-67
2023/08/06 07:34:30;;;;;;;2.30;1.30;;;16.40;98.00;;;;;;5071971;28;20457;-67
2023/08/06 07:36:57;;;;;;;1.50;1.37;;;16.50;98.00;;;;;;5071778;28;21004;-67
2023/08/06 07:39:24;;;;;;;1.80;1.37;;;16.40;98.00;;;;;;5071823;28;20455;-67
2023/08/06 07:41:52;;;;;;;1.50;1.30;;;16.30;98.00;;;;;;5071850;28;20790;-67
2023/08/06 07:44:19;;;;;;;1.83;1.20;;;16.20;98.00;;;;;;5071951;28;20507;-67
2023/08/06 07:46:46;;;;;;;3.20;1.30;;;16.10;98.00;;;;;;5062460;28;20458;-67
2023/08/06 07:49:13;;;;;;;1.80;1.33;;;16.20;98.00;;;;;;5051796;28;20962;-67
2023/08/06 07:54:14;;;;;;;1.40;1.30;;;16.00;98.00;;;;;;5008375;28;20486;-67
2023/08/06 07:56:41;;;;;;;2.13;1.13;;;16.00;98.00;;;;;;5011427;28;20451;-67
2023/08/06 07:59:10;;;;;;;1.20;1.10;;;16.00;98.00;;;;;;5011400;28;20738;-67
2023/08/06 08:01:37;;;;;;;1.20;1.10;;;16.00;98.00;;;;;;5011243;28;20888;-67
2023/08/06 08:04:05;;;;;;;1.20;1.10;;;15.90;98.00;;;;;;5011107;28;20486;-67
2023/08/06 08:06:32;;;;;;;1.30;1.10;;;15.80;98.00;;;;;;5008387;28;20970;-67
2023/08/06 08:08:59;;;;;;;1.40;1.20;;;16.00;98.00;;;;;;4990882;28;20457;-67
2023/08/06 08:11:27;;;;;;;1.50;1.40;;;16.00;98.00;;;;;;5005452;28;20452;-67
2023/08/06 08:13:55;;;;;;;1.20;1.10;;;16.00;98.00;;;;;;4991344;28;20467;-67
2023/08/06 08:16:25;;;;;;;1.30;1.20;;;16.00;98.00;;;;;;4991452;28;20835;-67
2023/08/06 08:18:52;;;;;;;1.20;1.20;;;16.20;98.00;;;;;;4991194;28;20467;-67
2023/08/06 08:21:24;;;;;;;1.20;1.00;;;16.30;98.00;;;;;;4992171;28;20448;-67
2023/08/06 08:23:51;;;;;;;1.30;1.10;;;16.50;98.00;;;;;;4995898;28;20484;-67
2023/08/06 08:26:18;;;;;;;1.77;1.20;;;16.60;98.00;;;;;;4995902;28;20456;-67
2023/08/06 08:28:45;;;;;;;1.80;1.00;;;16.50;98.00;;;;;;4994429;28;20931;-68
2023/08/06 08:31:14;;;;;;;1.30;1.10;;;16.70;98.00;;;;;;4988235;28;20467;-67
2023/08/06 08:33:42;;;;;;;1.30;1.10;;;16.80;98.00;;;;;;4995179;28;20455;-68
2023/08/06 08:36:10;;;;;;;1.83;1.10;;;16.90;98.00;;;;;;4995625;28;20463;-67
2023/08/06 08:38:37;;;;;;;1.40;1.10;;;16.90;98.00;;;;;;4976031;28;20479;-67
2023/08/06 08:41:05;;;;;;;1.20;1.00;;;16.90;98.00;;;;;;4959047;28;20873;-67
2023/08/06 08:43:33;;;;;;;2.90;1.30;;;17.00;98.00;;;;;;4976327;28;20489;-67
2023/08/06 08:46:03;;;;;;;1.20;1.10;;;17.20;98.00;;;;;;4976326;28;20999;-67
2023/08/06 08:48:30;;;;;;;1.17;1.10;;;17.30;98.00;;;;;;4975970;28;20468;-67
2023/08/06 08:50:59;;;;;;;1.20;1.00;;;17.40;98.00;;;;;;4984081;28;20539;-67
2023/08/06 08:53:27;;;;;;;1.20;1.00;;;17.50;98.00;;;;;;4994948;28;20487;-67
2023/08/06 08:55:55;;;;;;;1.20;1.00;;;17.70;98.00;;;;;;4995208;28;20463;-67
2023/08/06 08:58:23;;;;;;;2.07;1.17;;;17.70;98.00;;;;;;4995236;28;20460;-66
2023/08/06 09:00:50;;;;;;;1.30;1.13;;;17.80;98.00;;;;;;4994966;28;20464;-66
2023/08/06 09:03:18;;;;;;;1.30;1.10;;;17.80;98.00;;;;;;4995196;28;20483;-67
2023/08/06 09:05:50;;;;;;;1.20;1.20;;;17.90;98.00;;;;;;4995212;28;20503;-67
2023/08/06 09:08:25;;;;;;;1.20;1.10;;;17.90;98.00;;;;;;4980125;28;20456;-67
2023/08/06 09:10:53;;;;;;;1.23;1.10;;;18.00;98.00;;;;;;4994817;28;20519;-67
2023/08/06 09:13:23;;;;;;;1.30;1.10;;;17.80;98.00;;;;;;4994178;28;20460;-66
2023/08/06 09:15:50;;;;;;;1.20;1.20;;;17.60;98.00;;;;;;4993533;28;20803;-67
2023/08/06 09:18:26;;;;;;;1.30;1.20;;;17.60;98.00;;;;;;4993677;28;20491;-68
2023/08/06 09:20:53;;;;;;;1.20;1.10;;;17.80;98.00;;;;;;4993404;28;20494;-67
2023/08/06 09:23:28;;;;;;;1.20;1.10;;;17.50;98.00;;;;;;4994079;28;20484;-67
2023/08/06 09:25:55;;;;;;;1.30;1.10;;;17.20;98.00;;;;;;4994621;28;20934;-67
2023/08/06 09:28:24;;;;;;;1.30;1.13;;;16.90;98.00;;;;;;4994735;28;21161;-66
2023/08/06 09:30:54;;;;;;;1.13;1.00;;;16.90;98.00;;;;;;4994521;28;20456;-67
2023/08/06 09:33:24;;;;;;;1.20;1.00;;;16.90;98.00;;;;;;4994237;28;20467;-69
2023/08/06 09:35:53;;;;;;;1.20;1.10;;;16.80;98.00;;;;;;4994680;28;20460;-67
2023/08/06 09:38:23;;;;;;;1.27;1.00;;;16.90;98.00;;;;;;4994537;28;20453;-67
2023/08/06 09:40:50;;;;;;;1.17;1.00;;;16.80;98.00;;;;;;4994308;28;20460;-67
2023/08/06 09:43:20;;;;;;;2.40;1.00;;;16.70;98.00;;;;;;4994296;28;20487;-66
2023/08/06 09:45:47;;;;;;;2.33;1.20;;;16.70;98.00;;;;;;4994170;28;20456;-66
2023/08/06 09:48:14;;;;;;;1.20;1.10;;;16.70;98.00;;;;;;4994504;28;20922;-65
2023/08/06 09:50:41;;;;;;;1.20;1.10;;;16.70;98.00;;;;;;4994147;28;20457;-66
2023/08/06 09:53:09;;;;;;;1.90;1.50;;;16.80;98.00;;;;;;4993521;28;20464;-66
2023/08/06 09:55:38;;;;;;;1.20;1.00;;;17.00;98.00;;;;;;4993644;28;20445;-65
2023/08/06 09:58:06;;;;;;;1.20;1.10;;;17.00;98.00;;;;;;4993979;28;20580;-65
2023/08/06 10:00:35;;;;;;;1.20;1.10;;;17.00;98.00;;;;;;4994049;28;20463;-65
2023/08/06 10:03:02;;;;;;;1.40;1.10;;;17.10;98.00;;;;;;4994069;28;20463;-67
2023/08/06 10:05:33;;;;;;;1.40;1.13;;;17.00;98.00;;;;;;4994036;28;21079;-66
2023/08/06 10:08:03;;;;;;;1.23;1.00;;;17.10;98.00;;;;;;5000355;28;20462;-65
2023/08/06 10:10:32;;;;;;;1.60;1.10;;;17.00;98.00;;;;;;5225692;22;20482;-67
2023/08/06 10:13:02;;;;;;;1.20;1.10;;;16.90;98.00;;;;;;5234812;22;20499;-66
2023/08/06 10:15:32;;;;;;;1.20;1.10;;;16.90;98.00;;;;;;5032611;28;20496;-66
2023/08/06 10:18:02;;;;;;;1.30;1.00;;;16.90;98.00;;;;;;5033138;28;20462;-66
2023/08/06 10:20:34;;;;;;;1.20;1.00;;;16.90;98.00;;;;;;5033159;28;20454;-67
2023/08/06 10:23:03;;;;;;;1.20;1.10;;;16.90;98.00;;;;;;5033282;28;20451;-67
2023/08/06 10:25:34;;;;;;;1.20;1.10;;;16.90;98.00;;;;;;5015712;28;20501;-67
2023/08/06 10:28:10;;;;;;;1.20;1.10;;;16.90;98.00;;;;;;5033478;28;20546;-66
2023/08/06 10:30:44;;;;;;;1.77;1.20;;;16.90;98.00;;;;;;5033589;28;20880;-67
2023/08/06 10:33:11;;;;;;;1.63;1.20;;;16.90;98.00;;;;;;5033241;28;20897;-67
2023/08/06 10:35:43;;;;;;;1.20;1.13;;;16.90;98.00;;;;;;5032788;28;20949;-67
2023/08/06 10:38:11;;;;;;;1.20;1.10;;;17.00;98.00;;;;;;5032947;28;21125;-66
2023/08/06 10:40:44;;;;;;;1.20;1.00;;;16.90;98.00;;;;;;5032808;28;20451;-66
2023/08/06 10:43:27;;;;;;;1.20;1.10;;;16.80;98.00;;;;;;5032646;28;20458;-66
2023/08/06 10:45:57;;;;;;;1.20;1.10;;;16.80;98.00;;;;;;5032294;28;20798;-67
2023/08/06 10:48:32;;;;;;;1.10;1.00;;;16.80;98.00;;;;;;5032531;28;20967;-66
2023/08/06 10:51:00;;;;;;;1.20;1.20;;;17.00;98.00;;;;;;5032734;28;20486;-66
2023/08/06 10:53:27;;;;;;;1.20;1.10;;;17.10;98.00;;;;;;5032695;28;20462;-66
2023/08/06 10:55:56;;;;;;;1.20;1.00;;;17.10;98.00;;;;;;5032609;28;20459;-66
2023/08/06 10:58:24;;;;;;;1.20;1.10;;;17.00;98.00;;;;;;5032689;28;20462;-67
2023/08/06 11:00:51;;;;;;;1.20;1.00;;;16.90;98.00;;;;;;5032758;28;20990;-66
2023/08/06 11:03:19;;;;;;;1.40;1.20;;;16.90;98.00;;;;;;5032363;28;20465;-66
2023/08/06 11:05:50;;;;;;;1.77;1.10;;;16.80;98.00;;;;;;5032490;28;20488;-67
2023/08/06 11:08:24;;;;;;;1.20;1.10;;;16.80;98.00;;;;;;5032452;28;20499;-67
2023/08/06 11:10:51;;;;;;;1.30;1.10;;;16.80;98.00;;;;;;5032361;28;20952;-67
2023/08/06 11:13:19;;;;;;;1.20;1.00;;;16.90;98.00;;;;;;5032409;28;20458;-67
2023/08/06 11:15:48;;;;;;;1.30;1.03;;;17.00;98.00;;;;;;5032511;28;20528;-67
2023/08/06 11:18:15;;;;;;;2.03;1.17;;;17.20;98.00;;;;;;5032475;28;20461;-67
2023/08/06 11:20:42;;;;;;;1.20;1.13;;;17.20;98.00;;;;;;5032462;28;20462;-67
2023/08/06 11:23:11;;;;;;;1.20;1.10;;;17.20;98.00;;;;;;5032350;28;20450;-67
2023/08/06 11:25:44;;;;;;;1.17;1.00;;;17.30;98.00;;;;;;5032113;28;20885;-67
2023/08/06 11:28:12;;;;;;;1.20;1.00;;;17.40;98.00;;;;;;5032222;28;20991;-66
2023/08/06 11:30:39;;;;;;;1.20;1.10;;;17.10;98.00;;;;;;5014365;28;20457;-66
2023/08/06 11:33:09;;;;;;;1.53;1.17;;;16.80;98.00;;;;;;5031948;28;20451;-67
2023/08/06 11:35:37;;;;;;;1.40;1.30;;;16.90;98.00;;;;;;5031792;28;20461;-66
2023/08/06 11:38:04;;;;;;;1.20;1.20;;;16.90;98.00;;;;;;5014604;28;20457;-67
2023/08/06 11:40:32;;;;;;;1.20;1.00;;;16.80;98.00;;;;;;5014540;28;20465;-67
2023/08/06 11:43:00;;;;;;;3.13;1.10;;;16.80;98.00;;;;;;5031790;28;20454;-66
2023/08/06 11:45:28;;;;;;;1.57;1.10;;;16.80;98.00;;;;;;5014551;28;20502;-66
2023/08/06 11:48:02;;;;;;;1.37;1.20;;;16.80;98.00;;;;;;5031755;28;20855;-66
2023/08/06 11:50:33;;;;;;;1.30;1.10;;;16.60;98.00;;;;;;5031847;28;20456;-66
2023/08/06 11:53:01;;;;;;;1.50;1.37;;;16.50;98.00;;;;;;5031823;28;20462;-65
2023/08/06 11:55:29;;;;;;;1.30;1.13;;;16.30;98.00;;;;;;5033187;28;20457;-65
2023/08/06 11:57:57;;;;;;;1.40;1.20;;;16.30;98.00;;;;;;5018118;28;20466;-65
2023/08/06 12:00:26;;;;;;;1.77;1.50;;;16.30;98.00;;;;;;5035837;28;20450;-67
2023/08/06 12:02:54;;;;;;;1.60;1.20;;;16.20;98.00;;;;;;5035788;28;20940;-66
2023/08/06 12:05:24;;;;;;;1.20;1.00;;;16.30;98.00;;;;;;5035748;28;20478;-65
2023/08/06 12:07:54;;;;;;;1.53;1.23;;;16.30;98.00;;;;;;5035896;28;20465;-66
2023/08/06 12:10:26;;;;;;;1.40;1.20;;;16.30;98.00;;;;;;5035845;28;20951;-67
2023/08/06 12:12:54;;;;;;;2.10;1.50;;;16.20;98.00;;;;;;5035588;28;20465;-67
2023/08/06 12:15:21;;;;;;;2.00;1.53;;;16.10;98.00;;;;;;5035769;28;20465;-65
2023/08/06 12:17:48;;;;;;;1.60;1.37;;;16.20;98.00;;;;;;5035815;28;20468;-66
2023/08/06 12:20:16;;;;;;;1.93;1.50;;;16.20;98.00;;;;;;5035767;28;20464;-66
2023/08/06 12:22:43;;;;;;;2.50;1.60;;;16.20;98.00;;;;;;5035564;28;20456;-67
2023/08/06 12:25:12;;;;;;;2.60;1.30;;;16.10;98.00;;;;;;5035245;28;20496;-66
2023/08/06 12:27:44;;;;;;;1.80;1.40;;;16.00;98.00;;;;;;5035385;28;20820;-65
2023/08/06 12:30:12;;;;;;;3.50;1.70;;;16.00;98.00;;;;;;5017491;28;20461;-65
2023/08/06 12:32:39;;;;;;;1.70;1.40;;;15.90;98.00;;;;;;5035141;28;20460;-65
2023/08/06 12:35:09;;;;;;;2.70;1.60;;;15.90;98.00;;;;;;5035123;28;20464;-65
2023/08/06 12:37:38;;;;;;;1.77;1.60;;;15.80;98.00;;;;;;5019562;28;20462;-66
2023/08/06 12:40:06;;;;;;;1.50;1.37;;;15.70;98.00;;;;;;5015159;28;20579;-66
2023/08/06 12:42:35;;;;;;;1.73;1.37;;;15.60;98.00;;;;;;5014917;28;20458;-65
2023/08/06 12:45:03;;;;;;;2.20;1.47;;;15.50;98.00;;;;;;5015133;28;20488;-66
2023/08/06 12:47:31;;;;;;;1.97;1.60;;;15.50;98.00;;;;;;5015002;28;20461;-66
2023/08/06 12:49:58;;;;;;;1.60;1.40;;;15.50;98.00;;;;;;5014853;28;20461;-66
2023/08/06 12:52:25;;;;;;;2.33;1.63;;;15.50;98.00;;;;;;5013906;28;20465;-66
2023/08/06 12:54:56;;;;;;;2.50;1.43;;;15.40;98.00;;;;;;5014806;28;21168;-65
2023/08/06 12:57:23;;;;;;;2.57;1.73;;;15.50;98.00;;;;;;5014971;28;20510;-65
2023/08/06 12:59:51;;;;;;;2.40;1.70;;;15.50;98.00;;;;;;5015044;28;20456;-65
2023/08/06 13:02:18;;;;;;;1.80;1.47;;;15.50;98.00;;;;;;5015077;28;20452;-65